Time;durP1;ratioP1;P1;durP2;ratioP2;P2;SDS_P1;SDS_P2;PMS_P1;PMS_P2;Temp;Humidity;BMP_temperature;BMP_pressure;BME280_temperature;BME280_humidity;BME280_pressure;Samples;Min_cycle;Max_cycle;Signal;HPM_P1;HPM_P2
2021/01/26 00:00:50;;;;;;;24.50;20.42;;;;;;;;;;5041339;28;20210;-61
2021/01/26 00:03:17;;;;;;;32.78;22.23;;;;;;;;;;5040566;28;20270;-61
2021/01/26 00:05:45;;;;;;;29.23;23.08;;;;;;;;;;5040811;28;20336;-61
2021/01/26 00:08:12;;;;;;;29.95;23.98;;;;;;;;;;5039730;28;20286;-62
2021/01/26 00:10:39;;;;;;;30.48;22.92;;;;;;;;;;5039977;28;20297;-61
2021/01/26 00:13:07;;;;;;;33.10;24.58;;;;;;;;;;5036714;28;20284;-61
2021/01/26 00:15:35;;;;;;;27.38;22.55;;;;;;;;;;5034335;28;20238;-62
2021/01/26 00:18:02;;;;;;;30.35;24.60;;;;;;;;;;5033953;28;20284;-62
2021/01/26 00:20:29;;;;;;;33.45;23.90;;;;;;;;;;5033932;28;20210;-62
2021/01/26 00:22:56;;;;;;;26.25;22.55;;;;;;;;;;5035007;28;20240;-61
2021/01/26 00:25:24;;;;;;;28.55;22.63;;;;;;;;;;5037795;28;20233;-61
2021/01/26 00:27:51;;;;;;;32.67;25.00;;;;;;;;;;5037374;28;20218;-62
2021/01/26 00:30:20;;;;;;;29.77;22.20;;;;;;;;;;5037615;28;20212;-62
2021/01/26 00:32:48;;;;;;;33.15;24.63;;;;;;;;;;5037575;28;20205;-63
2021/01/26 00:35:15;;;;;;;30.10;23.75;;;;;;;;;;5037834;28;20576;-62
2021/01/26 00:37:42;;;;;;;29.25;22.58;;;;;;;;;;5037420;28;20253;-62
2021/01/26 00:40:10;;;;;;;33.65;23.17;;;;;;;;;;5037443;28;20293;-62
2021/01/26 00:42:37;;;;;;;31.98;25.27;;;;;;;;;;5037810;28;20202;-62
2021/01/26 00:45:04;;;;;;;31.45;23.67;;;;;;;;;;5037557;28;20244;-62
2021/01/26 00:47:31;;;;;;;28.58;23.00;;;;;;;;;;5037212;28;20222;-63
2021/01/26 00:49:59;;;;;;;31.13;23.73;;;;;;;;;;5037437;28;20572;-62
2021/01/26 00:52:26;;;;;;;33.08;23.95;;;;;;;;;;5037249;28;20210;-63
2021/01/26 00:54:53;;;;;;;31.17;23.58;;;;;;;;;;5037211;28;20289;-63
2021/01/26 00:57:20;;;;;;;30.67;23.67;;;;;;;;;;5037384;28;20384;-62
2021/01/26 00:59:47;;;;;;;30.92;23.42;;;;;;;;;;5037679;28;20202;-62
2021/01/26 01:02:14;;;;;;;31.77;24.33;;;;;;;;;;5037883;28;20210;-62
2021/01/26 01:04:41;;;;;;;31.20;21.75;;;;;;;;;;5038618;28;20210;-62
2021/01/26 01:07:09;;;;;;;30.30;23.23;;;;;;;;;;5038640;28;20313;-62
2021/01/26 01:09:36;;;;;;;30.83;22.00;;;;;;;;;;5038587;28;20298;-62
2021/01/26 01:12:03;;;;;;;30.40;22.63;;;;;;;;;;5038994;28;20301;-63
2021/01/26 01:14:30;;;;;;;24.58;21.20;;;;;;;;;;5038604;28;20209;-62
2021/01/26 01:16:57;;;;;;;29.38;23.25;;;;;;;;;;5039296;28;20321;-61
2021/01/26 01:19:24;;;;;;;29.92;24.38;;;;;;;;;;5039189;28;20213;-63
2021/01/26 01:21:51;;;;;;;26.50;20.30;;;;;;;;;;5040581;28;20237;-62
2021/01/26 01:24:19;;;;;;;30.05;22.58;;;;;;;;;;5038650;28;20234;-62
2021/01/26 01:26:46;;;;;;;29.88;22.42;;;;;;;;;;5038127;28;20218;-61
2021/01/26 01:29:14;;;;;;;30.55;22.35;;;;;;;;;;5037697;28;20222;-62
2021/01/26 01:31:41;;;;;;;27.92;22.75;;;;;;;;;;5041006;28;20602;-62
2021/01/26 01:34:08;;;;;;;28.88;20.63;;;;;;;;;;5054178;28;20222;-62
2021/01/26 01:36:35;;;;;;;27.88;20.50;;;;;;;;;;5045629;28;20285;-62
2021/01/26 01:39:03;;;;;;;28.95;22.13;;;;;;;;;;5042433;28;20230;-64
2021/01/26 01:41:31;;;;;;;25.63;21.10;;;;;;;;;;5043586;28;20693;-62
2021/01/26 01:43:58;;;;;;;30.15;21.55;;;;;;;;;;5044372;28;20289;-62
2021/01/26 01:46:25;;;;;;;29.75;22.25;;;;;;;;;;5038922;28;20630;-63
2021/01/26 01:48:53;;;;;;;24.67;20.45;;;;;;;;;;5037467;28;20291;-62
2021/01/26 01:51:24;;;;;;;27.58;21.50;;;;;;;;;;5037167;28;20206;-62
2021/01/26 01:53:53;;;;;;;28.17;20.67;;;;;;;;;;5036328;28;20292;-62
2021/01/26 01:56:25;;;;;;;25.27;20.08;;;;;;;;;;5036185;28;20210;-63
2021/01/26 01:58:56;;;;;;;27.48;20.35;;;;;;;;;;5036057;28;20722;-62
2021/01/26 02:01:26;;;;;;;26.30;19.50;;;;;;;;;;5036833;28;20187;-62
2021/01/26 02:03:54;;;;;;;24.77;20.20;;;;;;;;;;5036632;28;20307;-63
2021/01/26 02:06:23;;;;;;;24.88;19.48;;;;;;;;;;5036442;28;20199;-62
2021/01/26 02:08:53;;;;;;;23.52;18.20;;;;;;;;;;5036765;28;20244;-63
2021/01/26 02:11:21;;;;;;;26.50;20.48;;;;;;;;;;5037337;28;20565;-61
2021/01/26 02:13:48;;;;;;;24.90;19.52;;;;;;;;;;5036761;28;20206;-63
2021/01/26 02:16:19;;;;;;;25.63;19.67;;;;;;;;;;5037532;28;20202;-63
2021/01/26 02:18:57;;;;;;;24.38;19.42;;;;;;;;;;5039675;28;20238;-62
2021/01/26 02:21:42;;;;;;;25.65;18.98;;;;;;;;;;5040713;28;20194;-61
2021/01/26 02:24:25;;;;;;;29.27;20.20;;;;;;;;;;5043343;28;20202;-62
2021/01/26 02:27:05;;;;;;;25.48;21.05;;;;;;;;;;5043302;28;20223;-62
2021/01/26 02:29:41;;;;;;;30.50;20.90;;;;;;;;;;5041778;28;20265;-62
2021/01/26 02:32:17;;;;;;;30.90;20.80;;;;;;;;;;5044598;28;20190;-62
2021/01/26 02:35:02;;;;;;;26.27;20.05;;;;;;;;;;5041730;28;20193;-61
2021/01/26 02:37:37;;;;;;;28.48;20.08;;;;;;;;;;5040020;28;20223;-62
2021/01/26 02:40:08;;;;;;;29.50;21.38;;;;;;;;;;5039619;28;20197;-61
2021/01/26 02:42:47;;;;;;;27.63;20.17;;;;;;;;;;5038893;28;20210;-61
2021/01/26 02:45:24;;;;;;;28.80;21.30;;;;;;;;;;5038967;28;20190;-62
2021/01/26 02:48:05;;;;;;;26.95;20.65;;;;;;;;;;5035961;28;20230;-61
2021/01/26 02:50:34;;;;;;;27.45;20.27;;;;;;;;;;5035689;28;20663;-61
2021/01/26 02:53:04;;;;;;;30.27;21.15;;;;;;;;;;5035206;28;20670;-62
2021/01/26 02:55:34;;;;;;;27.30;20.65;;;;;;;;;;5035263;28;20674;-61
2021/01/26 02:58:03;;;;;;;28.23;20.92;;;;;;;;;;5035306;28;20222;-62
2021/01/26 03:00:31;;;;;;;24.92;18.95;;;;;;;;;;5035006;28;20202;-61
2021/01/26 03:03:00;;;;;;;25.55;19.88;;;;;;;;;;5035421;28;20202;-62
2021/01/26 03:05:29;;;;;;;28.13;21.45;;;;;;;;;;5034712;28;20272;-61
2021/01/26 03:07:58;;;;;;;23.85;18.05;;;;;;;;;;5034784;28;20257;-62
2021/01/26 03:10:28;;;;;;;28.75;20.50;;;;;;;;;;5034825;28;20202;-62
2021/01/26 03:12:58;;;;;;;26.02;19.75;;;;;;;;;;5034530;28;20203;-61
2021/01/26 03:15:31;;;;;;;26.00;18.90;;;;;;;;;;5034648;28;20206;-62
2021/01/26 03:17:59;;;;;;;27.75;20.20;;;;;;;;;;5034331;28;20263;-62
2021/01/26 03:20:28;;;;;;;28.67;20.95;;;;;;;;;;5034429;28;20369;-62
2021/01/26 03:22:56;;;;;;;23.40;18.38;;;;;;;;;;5035058;28;20199;-62
2021/01/26 03:25:24;;;;;;;27.75;21.58;;;;;;;;;;5034497;28;20211;-62
2021/01/26 03:27:53;;;;;;;26.73;19.25;;;;;;;;;;5034353;28;20249;-62
2021/01/26 03:30:23;;;;;;;26.45;20.55;;;;;;;;;;5034206;28;20214;-61
2021/01/26 03:32:52;;;;;;;31.88;21.77;;;;;;;;;;5034157;28;20209;-61
2021/01/26 03:35:19;;;;;;;28.38;21.55;;;;;;;;;;5034087;28;20209;-62
2021/01/26 03:37:53;;;;;;;30.48;23.33;;;;;;;;;;5034066;28;20230;-62
2021/01/26 03:40:20;;;;;;;30.05;22.83;;;;;;;;;;5034463;28;20191;-61
2021/01/26 03:42:47;;;;;;;29.88;20.88;;;;;;;;;;5033809;28;20202;-61
2021/01/26 03:45:15;;;;;;;30.63;21.63;;;;;;;;;;5035365;28;20206;-61
2021/01/26 03:47:49;;;;;;;33.28;22.98;;;;;;;;;;5034109;28;20276;-61
2021/01/26 03:50:45;;;;;;;31.13;23.27;;;;;;;;;;5034086;28;20213;-60
2021/01/26 03:53:23;;;;;;;31.23;21.45;;;;;;;;;;4973103;28;20189;-61
2021/01/26 03:55:54;;;;;;;28.52;20.80;;;;;;;;;;5024465;28;20201;-61
2021/01/26 03:58:31;;;;;;;30.85;21.15;;;;;;;;;;5033341;28;20231;-61
2021/01/26 04:01:00;;;;;;;27.73;19.77;;;;;;;;;;5037412;28;20197;-61
2021/01/26 04:03:34;;;;;;;28.25;21.70;;;;;;;;;;5037742;28;20239;-61
2021/01/26 04:07:41;;;;;;;28.52;21.27;;;;;;;;;;5114577;27;21075;-61
2021/01/26 04:10:13;;;;;;;29.85;21.15;;;;;;;;;;5113141;28;20279;-61
2021/01/26 04:12:41;;;;;;;29.00;20.50;;;;;;;;;;5112887;28;20336;-61
2021/01/26 04:15:11;;;;;;;29.55;20.15;;;;;;;;;;5116256;28;20618;-61
2021/01/26 04:17:41;;;;;;;32.35;21.77;;;;;;;;;;5113351;28;20305;-61
2021/01/26 04:20:09;;;;;;;28.35;20.95;;;;;;;;;;5116120;28;20287;-60
2021/01/26 04:22:36;;;;;;;28.50;21.45;;;;;;;;;;5114348;28;20199;-60
2021/01/26 04:25:20;;;;;;;29.48;21.45;;;;;;;;;;5114379;28;20252;-61
2021/01/26 04:27:47;;;;;;;27.70;20.65;;;;;;;;;;5114868;28;20243;-60
2021/01/26 04:30:15;;;;;;;30.38;21.20;;;;;;;;;;5112336;28;20314;-61
2021/01/26 04:32:42;;;;;;;31.95;21.35;;;;;;;;;;5111500;28;20298;-61
2021/01/26 04:35:09;;;;;;;26.98;20.27;;;;;;;;;;5111653;28;20199;-61
2021/01/26 04:37:36;;;;;;;25.92;19.05;;;;;;;;;;5111907;28;20312;-61
2021/01/26 04:40:03;;;;;;;28.25;19.75;;;;;;;;;;5114958;28;20267;-62
2021/01/26 04:42:33;;;;;;;26.85;20.05;;;;;;;;;;5112830;28;20302;-62
2021/01/26 04:45:06;;;;;;;26.13;19.80;;;;;;;;;;5111666;28;20373;-62
2021/01/26 04:47:36;;;;;;;27.20;20.60;;;;;;;;;;5112360;28;20224;-59
2021/01/26 04:50:09;;;;;;;28.67;20.70;;;;;;;;;;5112000;28;20194;-61
2021/01/26 04:52:52;;;;;;;26.63;20.15;;;;;;;;;;5111735;28;20585;-61
2021/01/26 04:55:25;;;;;;;29.40;20.65;;;;;;;;;;5113530;28;20271;-61
2021/01/26 04:58:04;;;;;;;27.45;18.98;;;;;;;;;;5113944;28;20251;-61
2021/01/26 05:00:34;;;;;;;27.23;19.48;;;;;;;;;;5112250;28;20274;-61
2021/01/26 05:03:13;;;;;;;29.88;21.70;;;;;;;;;;5111998;28;20195;-61
2021/01/26 05:05:42;;;;;;;26.05;19.13;;;;;;;;;;5112485;28;20233;-60
2021/01/26 05:08:13;;;;;;;30.50;20.63;;;;;;;;;;5111945;28;20226;-61
2021/01/26 05:10:42;;;;;;;27.63;19.38;;;;;;;;;;5111750;28;20701;-61
2021/01/26 05:13:12;;;;;;;26.58;19.95;;;;;;;;;;5113044;28;20203;-61
2021/01/26 05:15:41;;;;;;;27.38;19.67;;;;;;;;;;5113082;28;20204;-61
2021/01/26 05:18:10;;;;;;;29.25;20.42;;;;;;;;;;5102376;28;20303;-62
2021/01/26 05:20:40;;;;;;;29.23;20.58;;;;;;;;;;5098000;28;20237;-62
2021/01/26 05:23:11;;;;;;;26.35;19.25;;;;;;;;;;5101282;28;20290;-61
2021/01/26 05:25:38;;;;;;;24.65;18.45;;;;;;;;;;5098073;28;20208;-60
2021/01/26 05:28:06;;;;;;;22.05;17.95;;;;;;;;;;5096654;28;20312;-60
2021/01/26 05:30:35;;;;;;;27.50;20.45;;;;;;;;;;5096720;28;20282;-61
2021/01/26 05:33:04;;;;;;;26.75;18.50;;;;;;;;;;5096657;28;20236;-62
2021/01/26 05:35:30;;;;;;;24.92;18.35;;;;;;;;;;5096368;28;20208;-61
2021/01/26 05:37:57;;;;;;;28.92;19.38;;;;;;;;;;5096530;28;20307;-62
2021/01/26 05:40:25;;;;;;;26.13;17.70;;;;;;;;;;5097122;28;20224;-61
2021/01/26 05:42:55;;;;;;;25.55;19.10;;;;;;;;;;5097129;28;20196;-61
2021/01/26 05:45:23;;;;;;;30.40;19.75;;;;;;;;;;5097132;28;20286;-59
2021/01/26 05:48:01;;;;;;;30.45;20.80;;;;;;;;;;5096724;28;20319;-60
2021/01/26 05:50:29;;;;;;;28.17;19.08;;;;;;;;;;5097197;28;20189;-61
2021/01/26 05:53:03;;;;;;;25.90;18.95;;;;;;;;;;5097265;28;20230;-60
2021/01/26 05:55:31;;;;;;;26.42;19.35;;;;;;;;;;5096475;28;20213;-59
2021/01/26 05:58:06;;;;;;;31.95;21.10;;;;;;;;;;5097450;28;20226;-62
2021/01/26 06:00:33;;;;;;;29.63;21.02;;;;;;;;;;5097933;28;20220;-61
2021/01/26 06:03:08;;;;;;;24.33;18.85;;;;;;;;;;5096809;28;20211;-60
2021/01/26 06:05:35;;;;;;;23.60;18.17;;;;;;;;;;5095882;28;20635;-60
2021/01/26 06:08:06;;;;;;;25.50;18.38;;;;;;;;;;5096024;28;20227;-60
2021/01/26 06:10:34;;;;;;;26.33;18.60;;;;;;;;;;5096362;28;20283;-61
2021/01/26 06:13:02;;;;;;;27.95;19.17;;;;;;;;;;5096725;28;20642;-61
2021/01/26 06:15:32;;;;;;;27.40;19.50;;;;;;;;;;5096668;28;20214;-61
2021/01/26 06:18:14;;;;;;;26.83;19.40;;;;;;;;;;5098277;28;20227;-61
2021/01/26 06:20:42;;;;;;;25.50;18.77;;;;;;;;;;5097727;28;20566;-59
2021/01/26 06:23:14;;;;;;;26.95;18.70;;;;;;;;;;5096760;28;20232;-61
2021/01/26 06:25:42;;;;;;;38.63;20.58;;;;;;;;;;5096189;28;20282;-60
2021/01/26 06:28:16;;;;;;;25.38;18.88;;;;;;;;;;5096626;28;20220;-60
2021/01/26 06:30:47;;;;;;;28.35;20.67;;;;;;;;;;5096278;28;20660;-62
2021/01/26 06:33:30;;;;;;;24.92;19.25;;;;;;;;;;5096576;28;20582;-61
2021/01/26 06:36:05;;;;;;;23.60;18.35;;;;;;;;;;5096659;28;20262;-60
2021/01/26 06:38:46;;;;;;;24.73;18.42;;;;;;;;;;5095663;28;20619;-61
2021/01/26 06:41:34;;;;;;;26.75;18.35;;;;;;;;;;5098373;28;20283;-61
2021/01/26 06:44:13;;;;;;;28.20;20.45;;;;;;;;;;5098932;28;20280;-60
2021/01/26 06:46:50;;;;;;;26.33;18.23;;;;;;;;;;5098804;28;20273;-62
2021/01/26 06:49:30;;;;;;;26.60;18.73;;;;;;;;;;5100546;28;20247;-61
2021/01/26 06:52:15;;;;;;;26.25;18.13;;;;;;;;;;5101823;28;20276;-62
2021/01/26 06:54:51;;;;;;;26.50;18.95;;;;;;;;;;5087138;28;20291;-62
2021/01/26 06:57:25;;;;;;;23.80;18.80;;;;;;;;;;5104410;28;20287;-63
2021/01/26 07:00:09;;;;;;;25.25;19.85;;;;;;;;;;5112385;28;20252;-61
2021/01/26 07:02:50;;;;;;;28.52;21.35;;;;;;;;;;5111457;28;20297;-61
2021/01/26 07:05:25;;;;;;;28.42;21.10;;;;;;;;;;5104196;28;20275;-61
2021/01/26 07:08:06;;;;;;;28.50;19.73;;;;;;;;;;5096133;28;20220;-61
2021/01/26 07:10:39;;;;;;;29.27;19.63;;;;;;;;;;5095618;28;20227;-61
2021/01/26 07:13:17;;;;;;;29.10;20.45;;;;;;;;;;5096354;28;20232;-61
2021/01/26 07:15:55;;;;;;;31.10;21.75;;;;;;;;;;5094720;28;20188;-60
2021/01/26 07:18:38;;;;;;;30.45;20.25;;;;;;;;;;5094804;28;20306;-61
2021/01/26 07:21:13;;;;;;;27.40;18.73;;;;;;;;;;5095296;28;20267;-59
2021/01/26 07:23:53;;;;;;;30.20;20.50;;;;;;;;;;5095158;28;20245;-61
2021/01/26 07:26:37;;;;;;;26.42;19.35;;;;;;;;;;5094567;28;20208;-60
2021/01/26 07:29:19;;;;;;;31.48;19.83;;;;;;;;;;5095667;28;20271;-60
2021/01/26 07:31:49;;;;;;;29.58;20.13;;;;;;;;;;5095180;28;20271;-61
2021/01/26 07:34:19;;;;;;;34.33;22.48;;;;;;;;;;5098340;28;20206;-60
2021/01/26 07:36:52;;;;;;;29.65;20.60;;;;;;;;;;5096228;28;20304;-61
2021/01/26 07:39:22;;;;;;;33.58;20.58;;;;;;;;;;5097968;28;20275;-60
2021/01/26 07:41:53;;;;;;;32.80;20.15;;;;;;;;;;5097061;28;20273;-61
2021/01/26 07:44:23;;;;;;;31.88;21.05;;;;;;;;;;5098331;28;20240;-61
2021/01/26 07:46:53;;;;;;;22.75;16.65;;;;;;;;;;5098285;28;20248;-60
2021/01/26 07:49:24;;;;;;;31.83;20.92;;;;;;;;;;5098071;28;20268;-61
2021/01/26 07:51:54;;;;;;;31.67;20.77;;;;;;;;;;5101887;28;20256;-61
2021/01/26 07:54:28;;;;;;;37.10;21.63;;;;;;;;;;5102123;28;20644;-61
2021/01/26 07:56:58;;;;;;;30.95;20.55;;;;;;;;;;5097840;28;20282;-61
2021/01/26 07:59:26;;;;;;;36.33;23.13;;;;;;;;;;5098141;28;20261;-62
2021/01/26 08:01:54;;;;;;;35.30;22.60;;;;;;;;;;5096504;28;20566;-61
2021/01/26 08:04:21;;;;;;;29.00;18.58;;;;;;;;;;5094521;28;20507;-62
2021/01/26 08:06:53;;;;;;;30.13;20.73;;;;;;;;;;5093771;28;20488;-64
2021/01/26 08:09:28;;;;;;;34.03;22.00;;;;;;;;;;5095766;28;20204;-63
2021/01/26 08:12:01;;;;;;;33.28;21.58;;;;;;;;;;5094328;28;20317;-62
2021/01/26 08:14:31;;;;;;;31.60;18.95;;;;;;;;;;5093799;28;20256;-63
2021/01/26 08:16:58;;;;;;;33.72;21.00;;;;;;;;;;5094135;28;20223;-62
2021/01/26 08:19:27;;;;;;;31.33;19.67;;;;;;;;;;5094728;28;20286;-63
2021/01/26 08:21:57;;;;;;;35.40;21.50;;;;;;;;;;5094506;28;20209;-64
2021/01/26 08:24:30;;;;;;;31.35;20.33;;;;;;;;;;5097410;28;20664;-63
2021/01/26 08:27:17;;;;;;;29.85;19.98;;;;;;;;;;5095417;28;20277;-62
2021/01/26 08:29:55;;;;;;;38.05;23.48;;;;;;;;;;5094249;28;20200;-62
2021/01/26 08:32:48;;;;;;;33.78;21.73;;;;;;;;;;5095300;28;20204;-61
2021/01/26 08:35:31;;;;;;;34.50;19.85;;;;;;;;;;5059098;28;20222;-63
2021/01/26 08:37:59;;;;;;;37.60;22.02;;;;;;;;;;5094663;28;20227;-64
2021/01/26 08:40:53;;;;;;;38.72;23.20;;;;;;;;;;5095080;28;20243;-63
2021/01/26 08:43:40;;;;;;;35.00;23.67;;;;;;;;;;5095538;28;20292;-63
2021/01/26 08:46:08;;;;;;;37.17;23.02;;;;;;;;;;5101046;28;20643;-63
2021/01/26 08:48:35;;;;;;;39.72;25.30;;;;;;;;;;5096099;28;20228;-62
2021/01/26 08:51:08;;;;;;;41.58;25.95;;;;;;;;;;5099635;28;20204;-64
2021/01/26 08:53:38;;;;;;;36.72;23.27;;;;;;;;;;5098266;28;20187;-63
2021/01/26 08:56:12;;;;;;;34.25;23.60;;;;;;;;;;5099501;28;20246;-62
2021/01/26 08:58:41;;;;;;;41.25;24.60;;;;;;;;;;5097822;28;20323;-62
2021/01/26 09:01:09;;;;;;;43.85;25.45;;;;;;;;;;5097034;28;20613;-62
2021/01/26 09:03:38;;;;;;;41.08;23.60;;;;;;;;;;5097082;28;20727;-63
2021/01/26 09:06:09;;;;;;;39.90;25.27;;;;;;;;;;5096746;28;20224;-60
2021/01/26 09:09:00;;;;;;;36.33;23.02;;;;;;;;;;5096908;28;20216;-64
2021/01/26 09:11:29;;;;;;;46.30;26.25;;;;;;;;;;5096603;28;20187;-63
2021/01/26 09:14:02;;;;;;;44.25;26.40;;;;;;;;;;5097665;28;20204;-61
2021/01/26 09:16:30;;;;;;;42.72;27.27;;;;;;;;;;5097059;28;20216;-62
2021/01/26 09:18:58;;;;;;;51.30;28.92;;;;;;;;;;5096433;28;20532;-61
2021/01/26 09:21:25;;;;;;;48.75;29.15;;;;;;;;;;5096598;28;20242;-60
2021/01/26 09:23:54;;;;;;;47.95;28.88;;;;;;;;;;5096166;28;20205;-61
2021/01/26 09:26:21;;;;;;;45.75;27.65;;;;;;;;;;5099099;28;20671;-62
2021/01/26 09:28:50;;;;;;;43.70;27.40;;;;;;;;;;5097636;28;20266;-61
2021/01/26 09:31:18;;;;;;;46.58;27.10;;;;;;;;;;5095570;28;20206;-59
2021/01/26 09:33:45;;;;;;;48.47;27.40;;;;;;;;;;5096332;28;20201;-61
2021/01/26 09:36:13;;;;;;;51.45;27.20;;;;;;;;;;5096031;28;20274;-62
2021/01/26 09:38:43;;;;;;;46.55;27.73;;;;;;;;;;5096368;28;20243;-62
2021/01/26 09:41:16;;;;;;;47.55;29.20;;;;;;;;;;5096559;28;20200;-61
2021/01/26 09:43:44;;;;;;;55.08;29.48;;;;;;;;;;5095712;28;20279;-62
2021/01/26 09:46:14;;;;;;;47.28;28.02;;;;;;;;;;5096260;28;20856;-64
2021/01/26 09:48:42;;;;;;;51.80;30.50;;;;;;;;;;5095851;28;20307;-62
2021/01/26 09:51:13;;;;;;;52.45;29.10;;;;;;;;;;5096010;28;20574;-61
2021/01/26 09:53:41;;;;;;;47.65;29.02;;;;;;;;;;5095168;28;20196;-63
2021/01/26 09:56:08;;;;;;;46.80;27.02;;;;;;;;;;5095564;28;20698;-61
2021/01/26 09:58:35;;;;;;;52.15;29.70;;;;;;;;;;5095900;28;20221;-63
2021/01/26 10:01:03;;;;;;;49.75;29.30;;;;;;;;;;5095779;28;20288;-63
2021/01/26 10:03:31;;;;;;;51.22;29.13;;;;;;;;;;5099657;28;20291;-62
2021/01/26 10:05:59;;;;;;;45.15;25.63;;;;;;;;;;5100495;28;20310;-63
2021/01/26 10:08:28;;;;;;;47.88;28.83;;;;;;;;;;5101077;28;20573;-63
2021/01/26 10:10:55;;;;;;;46.20;27.60;;;;;;;;;;5099575;28;20615;-61
2021/01/26 10:13:32;;;;;;;41.92;25.60;;;;;;;;;;5101117;28;20657;-61
2021/01/26 10:16:00;;;;;;;45.58;26.08;;;;;;;;;;5097474;28;20287;-61
2021/01/26 10:18:29;;;;;;;48.30;29.60;;;;;;;;;;5096939;28;20224;-64
2021/01/26 10:20:58;;;;;;;48.70;28.35;;;;;;;;;;5097007;28;20292;-63
2021/01/26 10:23:27;;;;;;;52.28;29.30;;;;;;;;;;5096541;28;20200;-62
2021/01/26 10:26:05;;;;;;;48.25;30.73;;;;;;;;;;5096340;28;20620;-61
2021/01/26 10:28:32;;;;;;;48.58;29.17;;;;;;;;;;5095530;28;20228;-61
2021/01/26 10:30:59;;;;;;;47.05;30.48;;;;;;;;;;5095891;28;20214;-61
2021/01/26 10:33:32;;;;;;;48.83;29.75;;;;;;;;;;5095349;28;20299;-61
2021/01/26 10:36:14;;;;;;;50.67;30.75;;;;;;;;;;5095435;28;20204;-62
2021/01/26 10:38:44;;;;;;;48.95;30.05;;;;;;;;;;5095083;28;20247;-62
2021/01/26 10:41:12;;;;;;;51.90;29.60;;;;;;;;;;5095628;28;20212;-62
2021/01/26 10:43:40;;;;;;;47.65;30.45;;;;;;;;;;5095778;28;20297;-63
2021/01/26 10:46:11;;;;;;;51.10;28.52;;;;;;;;;;5094965;28;20295;-61
2021/01/26 10:48:43;;;;;;;49.42;29.35;;;;;;;;;;5095423;28;20307;-61
2021/01/26 10:51:11;;;;;;;47.85;28.42;;;;;;;;;;5095997;28;20184;-64
2021/01/26 10:53:39;;;;;;;44.58;27.75;;;;;;;;;;5096047;28;20775;-61
2021/01/26 10:56:08;;;;;;;50.97;30.77;;;;;;;;;;5095193;28;20287;-62
2021/01/26 10:58:35;;;;;;;51.85;29.80;;;;;;;;;;5098544;28;20727;-62
2021/01/26 11:01:02;;;;;;;52.72;31.55;;;;;;;;;;5107696;28;20259;-63
2021/01/26 11:03:29;;;;;;;53.75;28.98;;;;;;;;;;5101571;28;20224;-61
2021/01/26 11:05:56;;;;;;;52.60;30.27;;;;;;;;;;5097192;28;20290;-62
2021/01/26 11:08:23;;;;;;;54.35;30.45;;;;;;;;;;5096067;28;20240;-63
2021/01/26 11:10:50;;;;;;;49.22;30.55;;;;;;;;;;5096038;28;20593;-60
2021/01/26 11:13:18;;;;;;;45.95;29.70;;;;;;;;;;5096823;28;20257;-62
2021/01/26 11:15:45;;;;;;;51.55;28.80;;;;;;;;;;5097580;28;20295;-61
2021/01/26 11:18:12;;;;;;;55.45;31.90;;;;;;;;;;5096041;28;20358;-63
2021/01/26 11:20:39;;;;;;;56.88;31.33;;;;;;;;;;5095158;28;20739;-62
2021/01/26 11:23:06;;;;;;;59.53;32.33;;;;;;;;;;5095002;28;20207;-61
2021/01/26 11:25:33;;;;;;;59.20;33.03;;;;;;;;;;5094945;28;20577;-63
2021/01/26 11:28:00;;;;;;;58.20;31.75;;;;;;;;;;5096554;28;20224;-62
2021/01/26 11:30:28;;;;;;;52.63;27.55;;;;;;;;;;5099267;28;20626;-64
2021/01/26 11:32:55;;;;;;;62.00;33.75;;;;;;;;;;5098539;28;20290;-61
2021/01/26 11:35:24;;;;;;;61.47;33.30;;;;;;;;;;5097823;28;20291;-63
2021/01/26 11:37:51;;;;;;;61.42;32.47;;;;;;;;;;5098519;28;20252;-61
2021/01/26 11:40:18;;;;;;;65.85;34.53;;;;;;;;;;5096299;28;20204;-63
2021/01/26 11:42:45;;;;;;;58.92;31.23;;;;;;;;;;5094644;28;20323;-62
2021/01/26 11:45:14;;;;;;;63.42;33.58;;;;;;;;;;5094266;28;20303;-62
2021/01/26 11:47:42;;;;;;;55.08;31.95;;;;;;;;;;5093802;28;20317;-61
2021/01/26 11:50:10;;;;;;;55.95;30.60;;;;;;;;;;5093887;28;20236;-61
2021/01/26 11:52:37;;;;;;;57.75;31.17;;;;;;;;;;5094257;28;20196;-63
2021/01/26 11:55:04;;;;;;;57.40;30.52;;;;;;;;;;5093978;28;20664;-62
2021/01/26 11:57:31;;;;;;;55.00;32.13;;;;;;;;;;5101250;28;20303;-62
2021/01/26 11:59:58;;;;;;;53.95;29.58;;;;;;;;;;5095775;28;20207;-63
2021/01/26 12:02:25;;;;;;;58.10;33.28;;;;;;;;;;5095794;28;20200;-62
2021/01/26 12:04:53;;;;;;;50.28;30.30;;;;;;;;;;5097101;28;20271;-63
2021/01/26 12:07:20;;;;;;;53.75;30.80;;;;;;;;;;5094716;28;20315;-63
2021/01/26 12:09:47;;;;;;;53.45;30.48;;;;;;;;;;5094700;28;20192;-62
2021/01/26 12:12:14;;;;;;;46.15;27.33;;;;;;;;;;5094396;28;20560;-62
2021/01/26 12:14:41;;;;;;;44.80;28.63;;;;;;;;;;5095631;28;20674;-63
2021/01/26 12:17:08;;;;;;;47.55;29.77;;;;;;;;;;5095572;28;20216;-63
2021/01/26 12:19:35;;;;;;;42.63;25.50;;;;;;;;;;5094269;28;20204;-63
2021/01/26 12:22:03;;;;;;;48.00;29.23;;;;;;;;;;5093828;28;20203;-61
2021/01/26 12:24:30;;;;;;;43.20;27.48;;;;;;;;;;5094165;28;20196;-62
2021/01/26 12:26:56;;;;;;;45.30;28.40;;;;;;;;;;5094078;28;20229;-62
2021/01/26 12:29:24;;;;;;;41.72;25.98;;;;;;;;;;5098334;28;20295;-62
2021/01/26 12:31:50;;;;;;;40.80;25.50;;;;;;;;;;5101022;28;20670;-62
2021/01/26 12:34:20;;;;;;;34.53;24.20;;;;;;;;;;5104067;28;20205;-63
2021/01/26 12:36:49;;;;;;;42.50;26.40;;;;;;;;;;5102367;28;20218;-63
2021/01/26 12:39:16;;;;;;;39.70;24.85;;;;;;;;;;5101882;28;20200;-62
2021/01/26 12:41:43;;;;;;;39.35;25.08;;;;;;;;;;5100898;28;20234;-62
2021/01/26 12:44:11;;;;;;;34.58;24.30;;;;;;;;;;5101045;28;20303;-62
2021/01/26 12:46:38;;;;;;;36.72;23.77;;;;;;;;;;5099881;28;20220;-61
2021/01/26 12:49:05;;;;;;;36.13;23.42;;;;;;;;;;5100494;28;20220;-62
2021/01/26 12:51:32;;;;;;;34.85;21.90;;;;;;;;;;5100999;28;20231;-62
2021/01/26 12:53:59;;;;;;;35.92;23.00;;;;;;;;;;5099130;28;20231;-62
2021/01/26 12:56:27;;;;;;;33.47;24.02;;;;;;;;;;5098360;28;20283;-62
2021/01/26 12:58:54;;;;;;;31.77;21.67;;;;;;;;;;5097666;28;20295;-62
2021/01/26 13:01:21;;;;;;;26.27;18.75;;;;;;;;;;5097117;28;20228;-62
2021/01/26 13:03:48;;;;;;;30.65;20.63;;;;;;;;;;5097698;28;20286;-59
2021/01/26 13:06:15;;;;;;;27.02;19.70;;;;;;;;;;5096640;28;20353;-66
2021/01/26 13:08:41;;;;;;;28.95;20.10;;;;;;;;;;5096495;28;20315;-60
2021/01/26 13:11:09;;;;;;;25.17;17.88;;;;;;;;;;5096186;28;20723;-63
2021/01/26 13:13:36;;;;;;;28.98;19.70;;;;;;;;;;5096442;28;20690;-63
2021/01/26 13:16:03;;;;;;;23.95;17.58;;;;;;;;;;5097394;28;20303;-64
2021/01/26 13:18:30;;;;;;;25.25;17.73;;;;;;;;;;5097113;28;20694;-65
2021/01/26 13:20:57;;;;;;;27.75;16.50;;;;;;;;;;5096517;28;20211;-63
2021/01/26 13:23:25;;;;;;;27.90;18.60;;;;;;;;;;5097571;28;20287;-65
2021/01/26 13:25:52;;;;;;;25.17;19.02;;;;;;;;;;5096643;28;20262;-62
2021/01/26 13:28:19;;;;;;;25.42;17.55;;;;;;;;;;5096403;28;20228;-62
2021/01/26 13:30:48;;;;;;;23.23;17.88;;;;;;;;;;5096629;28;20200;-63
2021/01/26 13:33:15;;;;;;;27.40;16.90;;;;;;;;;;5097587;28;20204;-63
2021/01/26 13:35:42;;;;;;;24.95;18.15;;;;;;;;;;5101570;28;20267;-63
2021/01/26 13:38:11;;;;;;;23.30;18.13;;;;;;;;;;5103377;28;20219;-63
2021/01/26 13:40:38;;;;;;;27.42;18.40;;;;;;;;;;5098136;28;20208;-63
2021/01/26 13:43:06;;;;;;;23.85;17.02;;;;;;;;;;5106397;28;20243;-63
2021/01/26 13:45:34;;;;;;;26.30;18.67;;;;;;;;;;5106922;28;20200;-63
2021/01/26 13:48:05;;;;;;;23.80;17.40;;;;;;;;;;5109527;28;20244;-65
2021/01/26 13:50:33;;;;;;;25.73;17.98;;;;;;;;;;5112438;28;20294;-63
2021/01/26 13:53:01;;;;;;;19.05;12.63;;;;;;;;;;5110882;28;20211;-63
2021/01/26 13:55:28;;;;;;;22.70;17.65;;;;;;;;;;5110045;28;20243;-63
2021/01/26 13:57:55;;;;;;;23.52;16.83;;;;;;;;;;5109298;28;20220;-62
2021/01/26 14:00:22;;;;;;;25.60;18.90;;;;;;;;;;5109673;28;20358;-63
2021/01/26 14:02:53;;;;;;;23.52;18.17;;;;;;;;;;5109286;28;20204;-61
2021/01/26 14:05:21;;;;;;;25.23;18.85;;;;;;;;;;5109968;28;20207;-61
2021/01/26 14:07:48;;;;;;;23.08;16.95;;;;;;;;;;5111635;28;20252;-63
2021/01/26 14:10:15;;;;;;;23.45;17.45;;;;;;;;;;5112433;28;20224;-62
2021/01/26 14:12:42;;;;;;;26.00;18.17;;;;;;;;;;5102265;28;20287;-62
2021/01/26 14:15:09;;;;;;;29.05;18.98;;;;;;;;;;5108221;28;20744;-62
2021/01/26 14:17:36;;;;;;;25.10;18.70;;;;;;;;;;5104541;28;20262;-60
2021/01/26 14:20:04;;;;;;;26.73;18.65;;;;;;;;;;5102518;28;20304;-62
2021/01/26 14:22:32;;;;;;;30.88;20.15;;;;;;;;;;5104065;28;20292;-62
2021/01/26 14:24:59;;;;;;;24.58;18.25;;;;;;;;;;5102650;28;20238;-63
2021/01/26 14:27:26;;;;;;;25.58;18.63;;;;;;;;;;5104376;28;20332;-63
2021/01/26 14:29:53;;;;;;;27.95;19.73;;;;;;;;;;5100736;28;20224;-63
2021/01/26 14:32:20;;;;;;;28.50;20.38;;;;;;;;;;5099852;28;20268;-62
2021/01/26 14:34:47;;;;;;;28.70;20.48;;;;;;;;;;5100572;28;20578;-61